Ellendale, Delaware
Current Conditions -  °F | °C
As of 10:22 AM on Wednesday 26 Nov 2014 (Local Time) from KGED Reporting Station
Light Rain Light Rain  
Wind Chill: 34°   Ceiling: 700
Heat Index: 43°   Visibility: 2.5mi
Dew Point: 41°   Wind: 23mph
Humidity: 93%   Direction: 30°NNE
Pressure: 29.94"   Gusts: 32mph
Location:  38.81°N, 75.42°W
Report Text: KGED 261522Z AUTO 03020G28KT 2 1/2SM -RA BR BKN007 OVC012 06/05 A2994 RMK AO2 PK WND 05028/1520 PRESFR P0007 T00610050
Loading
Personal Weather Stations






























Interactive Weather Map New forecast layout! Learn more

10-Day Weather Forecast

Advertisements
Track Severe Weather on mobile